createdAt,value
2022-12-25T00:00:12.591Z,30.50
2022-12-25T00:03:11.464Z,30.60
2022-12-25T00:06:05.986Z,30.80
2022-12-25T00:09:00.352Z,31.00
2022-12-25T00:11:54.660Z,31.20
2022-12-25T00:14:49.342Z,31.30
2022-12-25T00:17:43.665Z,31.40
2022-12-25T00:20:38.324Z,31.70
2022-12-25T00:23:34.658Z,31.80
2022-12-25T00:26:30.366Z,32.00
2022-12-25T00:29:24.667Z,32.10
2022-12-25T00:32:19.129Z,32.20
2022-12-25T00:35:13.460Z,32.30
2022-12-25T00:38:08.338Z,32.40
2022-12-25T00:41:07.830Z,32.50
2022-12-25T00:44:02.192Z,32.70
2022-12-25T00:46:57.057Z,32.70
2022-12-25T00:49:51.563Z,32.90
2022-12-25T00:52:45.989Z,33.00
2022-12-25T00:55:40.400Z,33.10
2022-12-25T00:58:36.351Z,33.20
2022-12-25T01:01:30.863Z,33.40
2022-12-25T01:04:25.150Z,33.50
2022-12-25T01:07:19.862Z,33.70
2022-12-25T01:10:26.249Z,33.80
2022-12-25T01:13:20.729Z,33.90
2022-12-25T01:16:14.970Z,34.00
2022-12-25T01:19:09.627Z,34.10
2022-12-25T01:22:03.926Z,34.20
2022-12-25T01:24:58.273Z,34.30
2022-12-25T01:27:52.792Z,34.30
2022-12-25T01:30:51.704Z,34.50
2022-12-25T01:33:47.085Z,34.60
2022-12-25T01:36:41.543Z,34.70
2022-12-25T01:39:36.204Z,34.80
2022-12-25T01:42:30.677Z,34.90
2022-12-25T01:45:34.028Z,35.00
2022-12-25T01:48:38.562Z,35.00
2022-12-25T01:52:07.855Z,35.10
2022-12-25T01:55:11.047Z,35.20
2022-12-25T01:58:05.692Z,35.30
2022-12-25T02:01:00.353Z,35.30
2022-12-25T02:04:04.608Z,35.30
2022-12-25T02:06:59.210Z,35.40
2022-12-25T02:09:54.575Z,35.50
2022-12-25T02:12:50.273Z,35.50
2022-12-25T02:16:11.285Z,35.60
2022-12-25T02:19:28.479Z,35.60
2022-12-25T02:22:44.149Z,35.70
2022-12-25T02:25:50.354Z,35.70
2022-12-25T02:28:47.945Z,35.80
2022-12-25T02:31:50.556Z,36.00
2022-12-25T02:34:54.498Z,36.00
2022-12-25T02:38:13.586Z,36.10
2022-12-25T02:41:13.119Z,36.10
2022-12-25T02:44:32.455Z,36.10
2022-12-25T02:47:46.001Z,36.20
2022-12-25T02:50:58.516Z,36.20
2022-12-25T02:54:14.138Z,36.10
2022-12-25T02:57:31.473Z,36.20
2022-12-25T03:00:44.491Z,36.30
2022-12-25T03:04:00.725Z,36.50
2022-12-25T03:07:11.729Z,36.50
2022-12-25T03:10:28.303Z,36.50
2022-12-25T03:13:26.335Z,36.60
2022-12-25T03:16:39.929Z,36.70
2022-12-25T03:19:54.852Z,36.80
2022-12-25T03:23:08.418Z,36.80
2022-12-25T03:26:21.859Z,36.90
2022-12-25T03:29:36.164Z,36.90
2022-12-25T03:32:59.865Z,37.00
2022-12-25T03:36:07.614Z,37.00
2022-12-25T03:39:32.253Z,37.10
2022-12-25T03:43:00.889Z,37.10
2022-12-25T03:46:17.687Z,37.20
2022-12-25T03:49:44.166Z,37.20
2022-12-25T03:52:59.193Z,37.10
2022-12-25T03:56:13.455Z,37.00
2022-12-25T03:59:25.895Z,37.10
2022-12-25T04:02:38.627Z,37.20
2022-12-25T04:05:51.335Z,37.30
2022-12-25T04:09:04.011Z,37.40
2022-12-25T04:12:16.469Z,37.40
2022-12-25T04:15:29.487Z,37.40
2022-12-25T04:18:42.192Z,37.50
2022-12-25T04:21:54.760Z,37.60
2022-12-25T04:25:07.286Z,37.70
2022-12-25T04:28:24.074Z,37.70
2022-12-25T04:31:36.566Z,37.80
2022-12-25T04:34:49.201Z,37.80
2022-12-25T04:37:43.586Z,37.90
2022-12-25T04:40:38.492Z,37.80
2022-12-25T04:43:33.210Z,37.80
2022-12-25T04:46:27.664Z,37.80
2022-12-25T04:49:22.068Z,37.90
2022-12-25T04:52:16.613Z,38.00
2022-12-25T04:55:12.038Z,37.90
2022-12-25T04:58:06.646Z,37.90
2022-12-25T05:01:05.182Z,37.70
2022-12-25T05:03:59.742Z,37.70
2022-12-25T05:06:54.219Z,37.60
2022-12-25T05:09:48.632Z,37.70
2022-12-25T05:12:43.062Z,37.80
2022-12-25T05:15:37.467Z,37.70
2022-12-25T05:18:31.733Z,37.70
2022-12-25T05:21:26.344Z,37.70
2022-12-25T05:24:20.845Z,37.70
2022-12-25T05:27:16.231Z,37.80
2022-12-25T05:30:11.232Z,37.80
2022-12-25T05:33:05.765Z,37.70
2022-12-25T05:36:01.068Z,37.80
2022-12-25T05:38:55.465Z,37.80
2022-12-25T05:41:49.840Z,37.90
2022-12-25T05:44:45.033Z,37.90
2022-12-25T05:47:39.350Z,37.80
2022-12-25T05:50:33.797Z,37.90
2022-12-25T05:53:28.403Z,37.90
2022-12-25T05:56:22.911Z,37.90
2022-12-25T05:59:17.232Z,37.90
2022-12-25T06:02:11.858Z,37.90
2022-12-25T06:05:07.036Z,38.00
2022-12-25T06:08:01.724Z,38.00
2022-12-25T06:10:56.104Z,38.00
2022-12-25T06:13:54.563Z,38.00
2022-12-25T06:16:52.024Z,38.00
2022-12-25T06:19:46.749Z,38.00
2022-12-25T06:22:41.124Z,37.90
2022-12-25T06:25:35.764Z,37.90
2022-12-25T06:28:30.055Z,38.00
2022-12-25T06:31:25.877Z,38.00
2022-12-25T06:34:20.192Z,38.00
2022-12-25T06:37:14.712Z,38.00
2022-12-25T06:40:09.717Z,38.00
2022-12-25T06:43:04.031Z,37.80
2022-12-25T06:45:58.401Z,37.70
2022-12-25T06:48:53.939Z,37.50
2022-12-25T06:51:48.213Z,37.20
2022-12-25T06:54:42.882Z,37.00
2022-12-25T06:57:37.172Z,37.00
2022-12-25T07:00:31.502Z,37.00
2022-12-25T07:03:28.062Z,36.90
2022-12-25T07:06:22.100Z,36.90
2022-12-25T07:09:16.368Z,36.80
2022-12-25T07:12:19.943Z,36.90
2022-12-25T07:15:14.139Z,37.00
2022-12-25T07:18:09.660Z,37.00
2022-12-25T07:21:18.446Z,36.90
2022-12-25T07:24:12.866Z,36.90
2022-12-25T07:27:07.605Z,36.60
2022-12-25T07:30:02.082Z,36.60
2022-12-25T07:32:56.351Z,36.40
2022-12-25T07:35:50.845Z,36.40
2022-12-25T07:38:45.488Z,36.40
2022-12-25T07:41:40.171Z,36.40
2022-12-25T07:44:34.541Z,36.50
2022-12-25T07:47:28.862Z,36.40
2022-12-25T07:50:23.101Z,36.40
2022-12-25T07:53:17.373Z,36.30
2022-12-25T07:56:17.413Z,36.10
2022-12-25T07:59:12.063Z,36.00
2022-12-25T08:02:06.690Z,36.00
2022-12-25T08:05:01.349Z,36.00
2022-12-25T08:07:57.972Z,36.00
2022-12-25T08:10:52.769Z,36.00
2022-12-25T08:13:47.017Z,35.90
2022-12-25T08:16:42.909Z,35.90
2022-12-25T08:19:37.387Z,36.00
2022-12-25T08:22:31.741Z,36.00
2022-12-25T08:25:26.097Z,36.00
2022-12-25T08:28:20.451Z,36.00
2022-12-25T08:31:22.226Z,35.90
2022-12-25T08:34:16.869Z,35.90
2022-12-25T08:37:11.170Z,35.80
2022-12-25T08:40:05.797Z,35.90
2022-12-25T08:43:00.356Z,35.80
2022-12-25T08:45:55.131Z,35.80
2022-12-25T08:48:51.293Z,35.70
2022-12-25T08:51:47.223Z,35.70
2022-12-25T08:54:41.669Z,35.60
2022-12-25T08:57:36.051Z,35.60
2022-12-25T09:00:30.602Z,35.50
2022-12-25T09:03:26.201Z,35.40
2022-12-25T09:06:20.879Z,35.30
2022-12-25T09:09:15.278Z,35.20
2022-12-25T09:12:09.581Z,35.10
2022-12-25T09:15:03.869Z,35.00
2022-12-25T09:17:58.177Z,35.00
2022-12-25T09:21:03.521Z,34.90
2022-12-25T09:23:57.861Z,34.60
2022-12-25T09:26:53.093Z,34.60
2022-12-25T09:29:47.369Z,34.40
2022-12-25T09:32:41.808Z,34.40
2022-12-25T09:35:36.685Z,34.20
2022-12-25T09:38:33.093Z,34.10
2022-12-25T09:41:39.883Z,33.90
2022-12-25T09:44:39.731Z,33.80
2022-12-25T09:47:38.285Z,33.70
2022-12-25T09:51:14.988Z,33.70
2022-12-25T09:54:18.257Z,33.60
2022-12-25T09:57:14.968Z,33.60
2022-12-25T10:00:33.353Z,33.50
2022-12-25T10:03:44.537Z,33.50
2022-12-25T10:06:47.092Z,33.40
2022-12-25T10:10:05.891Z,33.30
2022-12-25T10:13:10.162Z,33.30
2022-12-25T10:16:30.619Z,33.20
2022-12-25T10:19:35.867Z,33.10
2022-12-25T10:22:40.254Z,33.10
2022-12-25T10:25:35.216Z,33.00
2022-12-25T10:28:55.206Z,32.90
2022-12-25T10:31:51.626Z,32.80
2022-12-25T10:34:46.114Z,32.70
2022-12-25T10:37:42.183Z,32.60
2022-12-25T10:41:20.292Z,32.60
2022-12-25T10:44:22.649Z,32.40
2022-12-25T10:47:29.852Z,32.40
2022-12-25T10:50:27.194Z,32.30
2022-12-25T10:53:25.410Z,32.20
2022-12-25T10:56:20.695Z,32.10
2022-12-25T10:59:15.257Z,32.10
2022-12-25T11:02:33.310Z,32.00
2022-12-25T11:05:36.218Z,31.90
2022-12-25T11:08:33.474Z,31.90
2022-12-25T11:11:30.247Z,31.80
2022-12-25T11:14:25.213Z,31.70
2022-12-25T11:17:23.694Z,31.60
2022-12-25T11:20:21.068Z,31.60
2022-12-25T11:23:19.290Z,31.50
2022-12-25T11:26:14.773Z,31.40
2022-12-25T11:29:25.870Z,31.40
2022-12-25T11:32:25.999Z,31.30
2022-12-25T11:35:21.098Z,31.20
2022-12-25T11:38:15.545Z,31.20
2022-12-25T11:41:14.336Z,31.10
2022-12-25T11:44:18.333Z,31.00
2022-12-25T11:47:35.962Z,30.90
2022-12-25T11:50:53.375Z,30.80
2022-12-25T11:54:00.553Z,30.70
2022-12-25T11:56:55.382Z,30.70
2022-12-25T12:00:00.129Z,30.60
2022-12-25T12:03:03.935Z,30.60
2022-12-25T12:06:20.577Z,30.50
2022-12-25T12:09:38.699Z,30.40
2022-12-25T12:12:53.858Z,30.30
2022-12-25T12:15:50.893Z,30.20
2022-12-25T12:18:50.233Z,30.10
2022-12-25T12:21:51.047Z,30.00
2022-12-25T12:24:46.506Z,30.00
2022-12-25T12:27:42.595Z,29.90
2022-12-25T12:30:37.518Z,29.90
2022-12-25T12:33:59.046Z,29.80
2022-12-25T12:37:09.347Z,29.70
2022-12-25T12:40:04.337Z,29.70
2022-12-25T12:42:59.007Z,29.60
2022-12-25T12:46:30.190Z,29.50
2022-12-25T12:49:27.202Z,29.40
2022-12-25T12:52:34.534Z,29.30
2022-12-25T12:55:33.209Z,29.10
2022-12-25T12:58:39.310Z,29.10
2022-12-25T13:01:47.415Z,29.00
2022-12-25T13:04:44.889Z,29.00
2022-12-25T13:08:30.090Z,28.90
2022-12-25T13:11:27.778Z,28.90
2022-12-25T13:14:24.488Z,28.80
2022-12-25T13:17:26.297Z,28.80
2022-12-25T13:20:38.588Z,28.70
2022-12-25T13:23:39.087Z,28.50
2022-12-25T13:26:33.706Z,28.50
2022-12-25T13:29:32.223Z,28.40
2022-12-25T13:32:35.411Z,28.40
2022-12-25T13:35:30.151Z,28.30
2022-12-25T13:38:30.749Z,28.30
2022-12-25T13:41:46.831Z,28.20
2022-12-25T13:44:49.540Z,28.20
2022-12-25T13:47:51.413Z,28.10
2022-12-25T13:51:02.173Z,28.10
2022-12-25T13:54:12.175Z,28.00
2022-12-25T13:57:16.277Z,27.90
2022-12-25T14:00:21.623Z,27.80
2022-12-25T14:03:38.121Z,27.80
2022-12-25T14:06:34.320Z,27.80
2022-12-25T14:09:29.133Z,27.60
2022-12-25T14:12:25.312Z,27.60
2022-12-25T14:15:24.342Z,27.60
2022-12-25T14:18:20.821Z,27.50
2022-12-25T14:21:45.720Z,27.50
2022-12-25T14:24:43.271Z,27.50
2022-12-25T14:27:37.668Z,27.40
2022-12-25T14:30:32.034Z,27.40
2022-12-25T14:33:27.604Z,27.40
2022-12-25T14:36:22.183Z,27.30
2022-12-25T14:39:42.811Z,27.30
2022-12-25T14:42:38.779Z,27.20
2022-12-25T14:45:40.520Z,27.20
2022-12-25T14:48:35.575Z,27.10
2022-12-25T14:51:31.008Z,27.00
2022-12-25T14:54:25.838Z,27.00
2022-12-25T14:57:31.867Z,27.00
2022-12-25T15:00:32.905Z,26.80
2022-12-25T15:03:34.400Z,26.80
2022-12-25T15:06:28.902Z,26.70
2022-12-25T15:09:24.162Z,26.70
2022-12-25T15:12:18.511Z,26.60
2022-12-25T15:15:13.008Z,26.50
2022-12-25T15:18:07.430Z,26.50
2022-12-25T15:21:01.997Z,26.50
2022-12-25T15:23:57.370Z,26.50
2022-12-25T15:26:54.440Z,26.60
2022-12-25T15:33:04.334Z,26.50
2022-12-25T15:35:58.611Z,26.50
2022-12-25T15:38:53.578Z,26.50
2022-12-25T15:42:05.994Z,26.50
2022-12-25T15:45:00.267Z,26.40
2022-12-25T15:47:54.847Z,26.30
2022-12-25T15:50:49.373Z,26.30
2022-12-25T15:53:43.671Z,26.20
2022-12-25T15:56:56.818Z,26.20
2022-12-25T15:59:51.270Z,26.20
2022-12-25T16:02:46.054Z,26.20
2022-12-25T16:05:40.609Z,26.10
2022-12-25T16:08:35.140Z,26.10
2022-12-25T16:11:29.395Z,26.10
2022-12-25T16:14:23.778Z,26.20
2022-12-25T16:17:18.032Z,26.10
2022-12-25T16:20:12.885Z,26.10
2022-12-25T16:23:07.110Z,26.10
2022-12-25T16:26:01.516Z,26.10
2022-12-25T16:29:01.192Z,26.10
2022-12-25T16:32:01.477Z,26.10
2022-12-25T16:34:55.707Z,26.00
2022-12-25T16:37:50.171Z,25.90
2022-12-25T16:40:45.155Z,25.90
2022-12-25T16:43:39.672Z,25.90
2022-12-25T16:46:34.077Z,25.80
2022-12-25T16:49:28.440Z,25.80
2022-12-25T16:52:22.915Z,25.80
2022-12-25T16:55:17.385Z,25.80
2022-12-25T16:58:11.703Z,25.70
2022-12-25T17:01:20.956Z,25.70
2022-12-25T17:04:15.331Z,25.70
2022-12-25T17:07:09.620Z,25.70
2022-12-25T17:10:04.014Z,25.60
2022-12-25T17:12:58.522Z,25.60
2022-12-25T17:15:52.848Z,25.60
2022-12-25T17:18:47.513Z,25.50
2022-12-25T17:21:41.916Z,25.50
2022-12-25T17:24:38.621Z,25.40
2022-12-25T17:27:32.944Z,25.40
2022-12-25T17:30:27.256Z,25.30
2022-12-25T17:33:21.608Z,25.30
2022-12-25T17:36:22.873Z,25.30
2022-12-25T17:39:17.231Z,25.30
2022-12-25T17:42:11.522Z,25.20
2022-12-25T17:45:06.014Z,25.20
2022-12-25T17:48:00.282Z,25.20
2022-12-25T17:50:54.480Z,25.00
2022-12-25T17:53:50.833Z,25.00
2022-12-25T17:56:45.336Z,24.90
2022-12-25T17:59:39.829Z,24.90
2022-12-25T18:02:34.164Z,24.90
2022-12-25T18:05:29.100Z,24.90
2022-12-25T18:08:23.310Z,24.90
2022-12-25T18:11:20.212Z,24.80
2022-12-25T18:14:16.955Z,24.80
2022-12-25T18:17:11.532Z,24.80
2022-12-25T18:20:06.675Z,24.80
2022-12-25T18:23:01.237Z,24.70
2022-12-25T18:25:55.775Z,24.70
2022-12-25T18:28:51.312Z,24.60
2022-12-25T18:31:45.629Z,24.60
2022-12-25T18:34:39.982Z,24.50
2022-12-25T18:37:39.756Z,24.50
2022-12-25T18:40:35.337Z,24.50
2022-12-25T18:43:52.720Z,24.50
2022-12-25T18:46:44.035Z,24.40
2022-12-25T18:49:38.445Z,24.40
2022-12-25T18:52:49.455Z,24.40
2022-12-25T18:55:45.625Z,24.30
2022-12-25T18:58:40.517Z,24.30
2022-12-25T19:01:34.846Z,24.20
2022-12-25T19:04:29.409Z,24.20
2022-12-25T19:07:25.072Z,24.10
2022-12-25T19:10:19.457Z,24.10
2022-12-25T19:13:13.712Z,24.10
2022-12-25T19:16:08.368Z,24.10
2022-12-25T19:19:03.097Z,24.00
2022-12-25T19:21:59.065Z,24.00
2022-12-25T19:24:53.595Z,23.90
2022-12-25T19:27:47.917Z,23.90
2022-12-25T19:30:42.373Z,23.90
2022-12-25T19:33:39.441Z,23.90
2022-12-25T19:36:33.726Z,23.80
2022-12-25T19:39:28.128Z,23.80
2022-12-25T19:42:23.232Z,23.80
2022-12-25T19:45:17.591Z,23.80
2022-12-25T19:48:11.825Z,23.70
2022-12-25T19:51:06.231Z,23.80
2022-12-25T19:54:00.683Z,23.70
2022-12-25T19:56:55.038Z,23.70
2022-12-25T19:59:51.338Z,23.70
2022-12-25T20:02:46.082Z,23.70
2022-12-25T20:05:41.052Z,23.70
2022-12-25T20:08:36.140Z,23.70
2022-12-25T20:11:32.349Z,23.70
2022-12-25T20:14:26.943Z,23.70
2022-12-25T20:17:21.522Z,23.70
2022-12-25T20:20:16.080Z,23.70
2022-12-25T20:23:10.797Z,23.70
2022-12-25T20:26:08.558Z,23.70
2022-12-25T20:29:02.911Z,23.70
2022-12-25T20:31:57.535Z,23.70
2022-12-25T20:34:51.853Z,23.70
2022-12-25T20:37:46.831Z,23.70
2022-12-25T20:41:08.148Z,23.80
2022-12-25T20:43:56.332Z,23.80
2022-12-25T20:46:50.652Z,23.80
2022-12-25T20:49:45.084Z,23.80
2022-12-25T20:52:39.316Z,23.80
2022-12-25T20:55:33.601Z,23.90
2022-12-25T20:58:27.891Z,23.90
2022-12-25T21:01:22.592Z,23.90
2022-12-25T21:04:16.976Z,23.90
2022-12-25T21:07:11.549Z,23.90
2022-12-25T21:10:06.715Z,24.00
2022-12-25T21:13:00.990Z,24.00
2022-12-25T21:15:55.432Z,24.00
2022-12-25T21:18:51.183Z,24.10
2022-12-25T21:21:45.592Z,24.10
2022-12-25T21:24:39.960Z,24.10
2022-12-25T21:27:34.303Z,24.10
2022-12-25T21:30:28.696Z,24.20
2022-12-25T21:33:41.204Z,24.20
2022-12-25T21:36:36.944Z,24.30
2022-12-25T21:39:31.362Z,24.30
2022-12-25T21:42:26.205Z,24.40
2022-12-25T21:45:20.531Z,24.50
2022-12-25T21:48:14.925Z,24.50
2022-12-25T21:51:29.032Z,24.70
2022-12-25T21:54:24.782Z,24.70
2022-12-25T21:57:19.053Z,24.80
2022-12-25T22:00:13.986Z,25.00
2022-12-25T22:03:08.438Z,25.20
2022-12-25T22:06:21.835Z,25.50
2022-12-25T22:09:16.360Z,25.90
2022-12-25T22:12:33.896Z,26.50
2022-12-25T22:15:46.131Z,27.10
2022-12-25T22:18:58.860Z,27.60
2022-12-25T22:21:53.771Z,28.10
2022-12-25T22:24:51.608Z,28.60
2022-12-25T22:27:47.363Z,29.00
2022-12-25T22:30:45.526Z,29.50
2022-12-25T22:33:39.876Z,29.90
2022-12-25T22:36:34.442Z,30.20
2022-12-25T22:39:31.725Z,30.50
2022-12-25T22:42:26.172Z,30.80
2022-12-25T22:45:20.421Z,31.00
2022-12-25T22:48:14.919Z,31.20
2022-12-25T22:51:09.231Z,31.40
2022-12-25T22:54:04.676Z,31.60
2022-12-25T22:57:00.171Z,31.80
2022-12-25T22:59:55.316Z,31.90
2022-12-25T23:02:49.868Z,32.00
2022-12-25T23:05:44.436Z,32.10
2022-12-25T23:08:38.843Z,32.30
2022-12-25T23:11:33.503Z,32.40
2022-12-25T23:14:41.217Z,32.50
2022-12-25T23:17:53.710Z,32.60
2022-12-25T23:21:06.324Z,32.70
2022-12-25T23:24:18.971Z,32.70
2022-12-25T23:27:13.588Z,32.80
2022-12-25T23:30:13.141Z,33.00
2022-12-25T23:33:07.525Z,33.10
2022-12-25T23:36:02.129Z,33.20
2022-12-25T23:38:56.562Z,33.30
2022-12-25T23:41:52.127Z,33.40
2022-12-25T23:44:46.924Z,33.50
2022-12-25T23:47:41.668Z,33.70
2022-12-25T23:50:36.238Z,33.80
2022-12-25T23:53:30.554Z,34.00
2022-12-25T23:56:25.083Z,34.10
2022-12-25T23:59:19.771Z,34.40
